ZF1EJ Savannah KY current weather conditions

sailwx.info

Wind from 072 at 2 knots gusting 4

Air temperature 26.1° C

Last reported at 2017-May-29 12:00 UTC.
Time now 2017-May-29 13:07 UTC

Location: N 19°16' W 081°18'.
View on Google Maps.

See reports from other nearby stations

  
Tides and Currents Weather Stations Pressure Air Temp Water Temp Dewpoint Dewpoint Depression Visibility Wind Speed Wind Dir Waves Ship Positions
date/time (UTC)wind fromknots sea level pressurealtimeterstation pressurevisibilityair tempwater tempwave heightnotes
2017-May-29 12:00 072 2 gusting 4 26.1
2017-May-29 11:00 089 3 gusting 4 25.0
2017-May-29 10:00 094 1 gusting 4 25.0
2017-May-29 09:00 046 1 gusting 4 26.1
2017-May-29 08:00 186 1 gusting 5 26.1
2017-May-29 07:00 154 1 gusting 2 26.1
2017-May-29 06:00 079 1 gusting 2 26.1
2017-May-29 05:00 085 3 gusting 4 26.1
2017-May-29 04:00 080 1 gusting 4 26.1
2017-May-29 03:00 114 1 gusting 2 26.1
2017-May-29 02:00 087 2 gusting 2 26.7
2017-May-29 01:00 075 2 gusting 4 27.2
2017-May-29 00:00 100 1 gusting 6 27.8
2017-May-28 23:00 132 8 gusting 8 28.9
2017-May-28 22:00 155 7 gusting 7 29.4
2017-May-28 21:00 103 7 gusting 13 30.0
2017-May-28 20:00 156 4 gusting 12 30.0
2017-May-28 19:00 136 5 gusting 12 30.6
2017-May-28 18:00 153 6 gusting 11 30.6
2017-May-28 17:00 112 5 gusting 11 30.6
2017-May-28 16:00 168 7 gusting 8 30.0
2017-May-28 15:00 098 3 gusting 8 29.4
2017-May-28 14:00 148 5 gusting 7 28.9
2017-May-28 13:00 117 0 gusting 5 28.3
2017-May-28 12:00 077 0 gusting 1 26.1
2017-May-28 11:00 115 0 gusting 1 25.0
2017-May-28 10:00 080 1 gusting 1 25.0
2017-May-28 09:00 045 0 gusting 1 25.0
2017-May-28 08:00 075 1 gusting 2 25.0
2017-May-28 07:00 158 2 gusting 5 27.2
2017-May-28 06:00 178 5 gusting 6 27.2
2017-May-28 05:00 107 2 gusting 4 26.1
2017-May-28 04:00 101 1 gusting 4 26.1
2017-May-28 03:00 110 2 gusting 4 26.1
2017-May-28 02:00 088 2 gusting 4 26.7
2017-May-28 01:00 078 2 gusting 6 27.2
2017-May-28 00:00 094 2 gusting 6 27.8
2017-May-27 23:00 138 2 gusting 12 28.9
2017-May-27 22:00 141 6 gusting 11 30.0
2017-May-27 21:00 129 7 gusting 12 30.6
2017-May-27 20:00 144 10 gusting 12 30.6
2017-May-27 19:00 137 6 gusting 12 30.6
2017-May-27 18:00 136 7 gusting 11 30.0
2017-May-27 17:00 112 10 gusting 12 30.0
2017-May-27 16:00 124 5 gusting 12 30.0
2017-May-27 15:00 134 8 gusting 8 29.4
2017-May-27 14:00 118 5 gusting 7 29.4
2017-May-27 13:00 050 4 gusting 7 28.3